createdAt,value
2018-08-22T00:00:48.834Z,22.08
2018-08-22T00:03:17.477Z,22.03
2018-08-22T00:05:46.390Z,21.97
2018-08-22T00:08:15.701Z,21.99
2018-08-22T00:10:44.402Z,21.99
2018-08-22T00:13:13.382Z,21.99
2018-08-22T00:15:42.168Z,21.95
2018-08-22T00:18:10.969Z,21.89
2018-08-22T00:20:39.629Z,21.84
2018-08-22T00:23:08.245Z,21.80
2018-08-22T00:25:37.079Z,21.79
2018-08-22T00:28:05.893Z,21.76
2018-08-22T00:30:34.737Z,21.76
2018-08-22T00:33:03.393Z,21.71
2018-08-22T00:35:32.055Z,21.68
2018-08-22T00:38:00.742Z,21.65
2018-08-22T00:40:29.537Z,21.64
2018-08-22T00:42:58.562Z,21.63
2018-08-22T00:45:27.434Z,21.62
2018-08-22T00:47:56.131Z,21.58
2018-08-22T00:50:24.946Z,21.59
2018-08-22T00:52:53.723Z,21.57
2018-08-22T00:55:22.395Z,21.58
2018-08-22T00:57:51.296Z,21.54
2018-08-22T01:00:20.059Z,21.53
2018-08-22T01:02:55.271Z,21.53
2018-08-22T01:05:24.590Z,21.48
2018-08-22T01:07:53.541Z,21.48
2018-08-22T01:10:22.283Z,21.51
2018-08-22T01:12:51.057Z,21.55
2018-08-22T01:15:19.784Z,21.44
2018-08-22T01:17:48.519Z,21.37
2018-08-22T01:20:17.290Z,21.37
2018-08-22T01:22:45.946Z,21.33
2018-08-22T01:25:14.644Z,21.28
2018-08-22T01:27:44.374Z,21.29
2018-08-22T01:30:13.340Z,21.31
2018-08-22T01:32:42.115Z,21.28
2018-08-22T01:35:10.874Z,21.24
2018-08-22T01:37:39.579Z,21.23
2018-08-22T01:40:08.236Z,21.27
2018-08-22T01:42:36.935Z,21.23
2018-08-22T01:45:06.003Z,21.21
2018-08-22T01:47:34.726Z,21.17
2018-08-22T01:50:03.535Z,21.12
2018-08-22T01:52:32.201Z,21.10
2018-08-22T01:55:01.200Z,21.09
2018-08-22T01:57:29.917Z,21.04
2018-08-22T01:59:58.607Z,21.00
2018-08-22T02:02:27.458Z,20.95
2018-08-22T02:04:56.266Z,20.95
2018-08-22T02:07:24.926Z,20.83
2018-08-22T02:09:53.663Z,20.89
2018-08-22T02:12:22.347Z,20.95
2018-08-22T02:14:51.205Z,20.96
2018-08-22T02:17:19.916Z,20.91
2018-08-22T02:19:48.838Z,20.90
2018-08-22T02:22:17.690Z,20.91
2018-08-22T02:24:46.502Z,20.93
2018-08-22T02:27:15.257Z,20.96
2018-08-22T02:29:50.530Z,20.96
2018-08-22T02:32:19.186Z,21.01
2018-08-22T02:34:48.002Z,20.97
2018-08-22T02:37:17.120Z,20.97
2018-08-22T02:39:45.947Z,20.94
2018-08-22T02:42:14.615Z,20.94
2018-08-22T02:44:43.339Z,20.95
2018-08-22T02:47:12.467Z,20.83
2018-08-22T02:49:41.106Z,20.86
2018-08-22T02:52:09.950Z,20.86
2018-08-22T02:54:38.701Z,20.85
2018-08-22T02:57:07.480Z,20.80
2018-08-22T02:59:36.410Z,20.80
2018-08-22T03:02:05.066Z,20.76
2018-08-22T03:04:34.440Z,20.68
2018-08-22T03:07:03.161Z,20.60
2018-08-22T03:09:31.826Z,20.64
2018-08-22T03:12:00.660Z,20.63
2018-08-22T03:14:29.610Z,20.60
2018-08-22T03:16:58.390Z,20.59
2018-08-22T03:19:27.187Z,20.58
2018-08-22T03:21:55.883Z,20.57
2018-08-22T03:24:24.902Z,20.52
2018-08-22T03:26:53.873Z,20.49
2018-08-22T03:29:22.567Z,20.45
2018-08-22T03:31:51.378Z,20.35
2018-08-22T03:34:20.149Z,20.34
2018-08-22T03:36:48.839Z,20.35
2018-08-22T03:39:17.490Z,20.30
2018-08-22T03:41:46.138Z,20.28
2018-08-22T03:44:14.903Z,20.27
2018-08-22T03:46:43.571Z,20.28
2018-08-22T03:49:12.349Z,20.27
2018-08-22T03:51:41.047Z,20.30
2018-08-22T03:54:09.881Z,20.26
2018-08-22T03:56:38.637Z,20.26
2018-08-22T03:59:07.282Z,20.22
2018-08-22T04:01:35.984Z,20.23
2018-08-22T04:04:04.704Z,20.24
2018-08-22T04:06:33.473Z,20.23
2018-08-22T04:09:02.290Z,20.20
2018-08-22T04:11:31.086Z,20.19
2018-08-22T04:13:59.723Z,20.22
2018-08-22T04:16:28.406Z,20.20
2018-08-22T04:18:57.095Z,20.23
2018-08-22T04:21:25.833Z,20.23
2018-08-22T04:23:54.512Z,20.24
2018-08-22T04:26:23.258Z,20.24
2018-08-22T04:28:52.210Z,20.25
2018-08-22T04:31:21.001Z,20.20
2018-08-22T04:33:49.775Z,20.20
2018-08-22T04:36:18.422Z,20.18
2018-08-22T04:38:47.057Z,20.21
2018-08-22T04:41:15.941Z,20.22
2018-08-22T04:43:44.693Z,20.22
2018-08-22T04:46:13.725Z,20.15
2018-08-22T04:48:42.616Z,20.08
2018-08-22T04:51:11.350Z,20.13
2018-08-22T04:53:40.018Z,20.21
2018-08-22T04:56:08.981Z,20.26
2018-08-22T04:58:37.681Z,20.31
2018-08-22T05:01:06.661Z,20.40
2018-08-22T05:03:35.411Z,20.40
2018-08-22T05:06:04.061Z,20.46
2018-08-22T05:08:33.306Z,20.48
2018-08-22T05:11:02.081Z,20.50
2018-08-22T05:13:30.840Z,20.54
2018-08-22T05:15:59.491Z,20.51
2018-08-22T05:18:28.135Z,20.56
2018-08-22T05:20:56.965Z,20.60
2018-08-22T05:23:25.641Z,20.66
2018-08-22T05:25:54.321Z,20.68
2018-08-22T05:28:23.047Z,20.57
2018-08-22T05:30:51.780Z,20.63
2018-08-22T05:33:20.456Z,20.63
2018-08-22T05:35:49.150Z,20.66
2018-08-22T05:38:18.069Z,20.64
2018-08-22T05:40:46.810Z,20.75
2018-08-22T05:43:15.463Z,20.70
2018-08-22T05:45:44.256Z,20.79
2018-08-22T05:48:12.996Z,20.91
2018-08-22T05:50:41.685Z,20.96
2018-08-22T05:53:10.418Z,20.99
2018-08-22T05:55:39.069Z,21.11
2018-08-22T05:58:07.984Z,21.15
2018-08-22T06:00:36.859Z,21.25
2018-08-22T06:03:05.514Z,21.25
2018-08-22T06:05:34.222Z,21.27
2018-08-22T06:08:03.046Z,21.35
2018-08-22T06:10:31.932Z,21.42
2018-08-22T06:13:00.619Z,21.40
2018-08-22T06:15:29.276Z,21.36
2018-08-22T06:17:58.525Z,21.38
2018-08-22T06:20:27.377Z,21.38
2018-08-22T06:22:56.066Z,21.46
2018-08-22T06:25:24.748Z,21.58
2018-08-22T06:27:53.566Z,21.69
2018-08-22T06:30:22.311Z,21.80
2018-08-22T06:32:51.040Z,21.87
2018-08-22T06:35:19.672Z,21.93
2018-08-22T06:37:48.691Z,22.11
2018-08-22T06:40:17.349Z,22.14
2018-08-22T06:42:45.994Z,22.20
2018-08-22T06:45:14.799Z,22.27
2018-08-22T06:47:43.517Z,22.27
2018-08-22T06:50:12.218Z,22.44
2018-08-22T06:52:41.022Z,22.46
2018-08-22T06:55:09.731Z,22.55
2018-08-22T06:57:38.497Z,22.56
2018-08-22T07:00:08.493Z,22.66
2018-08-22T07:02:37.296Z,22.70
2018-08-22T07:05:06.334Z,22.93
2018-08-22T07:07:35.068Z,22.99
2018-08-22T07:10:03.860Z,23.13
2018-08-22T07:12:32.538Z,23.22
2018-08-22T07:15:01.239Z,23.27
2018-08-22T07:17:29.933Z,23.33
2018-08-22T07:19:58.602Z,23.42
2018-08-22T07:22:27.537Z,23.39
2018-08-22T07:24:56.193Z,23.41
2018-08-22T07:27:25.083Z,23.48
2018-08-22T07:29:53.981Z,23.42
2018-08-22T07:32:22.862Z,23.38
2018-08-22T07:34:51.992Z,23.38
2018-08-22T07:37:21.060Z,23.49
2018-08-22T07:39:49.733Z,23.58
2018-08-22T07:42:18.421Z,23.54
2018-08-22T07:44:47.066Z,23.68
2018-08-22T07:47:15.765Z,23.74
2018-08-22T07:49:44.445Z,23.86
2018-08-22T07:52:13.980Z,24.00
2018-08-22T07:54:45.885Z,24.12
2018-08-22T07:57:16.214Z,24.26
2018-08-22T07:59:44.998Z,24.40
2018-08-22T08:02:13.661Z,24.46
2018-08-22T08:04:42.304Z,24.59
2018-08-22T08:07:11.277Z,24.74
2018-08-22T08:09:40.023Z,24.77
2018-08-22T08:12:08.728Z,24.99
2018-08-22T08:14:37.725Z,24.93
2018-08-22T08:17:06.536Z,25.07
2018-08-22T08:19:35.328Z,25.20
2018-08-22T08:22:04.013Z,25.23
2018-08-22T08:24:32.776Z,25.36
2018-08-22T08:27:01.716Z,25.54
2018-08-22T08:29:30.685Z,25.65
2018-08-22T08:31:59.431Z,25.70
2018-08-22T08:34:28.087Z,25.76
2018-08-22T08:36:56.950Z,25.81
2018-08-22T08:39:25.600Z,25.98
2018-08-22T08:41:54.297Z,25.85
2018-08-22T08:44:23.051Z,25.89
2018-08-22T08:46:51.828Z,25.95
2018-08-22T08:49:20.584Z,26.15
2018-08-22T08:51:57.771Z,26.24
2018-08-22T08:54:26.661Z,26.36
2018-08-22T08:56:55.332Z,26.45
2018-08-22T08:59:24.245Z,26.55
2018-08-22T09:01:53.047Z,26.68
2018-08-22T09:04:21.898Z,26.57
2018-08-22T09:06:51.015Z,26.79
2018-08-22T09:09:19.785Z,26.92
2018-08-22T09:11:51.354Z,26.93
2018-08-22T09:14:20.102Z,27.13
2018-08-22T09:16:49.561Z,27.35
2018-08-22T09:19:18.498Z,27.35
2018-08-22T09:21:47.305Z,27.50
2018-08-22T09:24:16.106Z,27.57
2018-08-22T09:26:44.802Z,27.78
2018-08-22T09:29:13.886Z,27.59
2018-08-22T09:31:42.559Z,27.80
2018-08-22T09:34:11.384Z,27.95
2018-08-22T09:36:40.173Z,27.94
2018-08-22T09:39:11.959Z,27.73
2018-08-22T09:41:40.721Z,27.85
2018-08-22T09:44:09.542Z,27.96
2018-08-22T09:46:39.621Z,28.10
2018-08-22T09:49:08.735Z,28.35
2018-08-22T09:51:37.713Z,28.24
2018-08-22T09:54:06.502Z,28.19
2018-08-22T09:56:35.210Z,28.23
2018-08-22T09:59:04.157Z,28.31
2018-08-22T10:01:38.304Z,28.41
2018-08-22T10:04:07.095Z,28.34
2018-08-22T10:06:44.880Z,28.57
2018-08-22T10:09:17.065Z,28.69
2018-08-22T10:11:45.945Z,28.73
2018-08-22T10:14:14.718Z,28.69
2018-08-22T10:16:43.486Z,28.65
2018-08-22T10:19:12.146Z,28.77
2018-08-22T10:21:40.863Z,28.82
2018-08-22T10:24:09.615Z,28.95
2018-08-22T10:26:38.544Z,28.94
2018-08-22T10:29:07.373Z,28.95
2018-08-22T10:31:36.081Z,28.94
2018-08-22T10:34:05.061Z,29.01
2018-08-22T10:36:33.709Z,29.18
2018-08-22T10:39:02.620Z,29.40
2018-08-22T10:41:31.429Z,29.56
2018-08-22T10:44:00.082Z,29.66
2018-08-22T10:46:28.856Z,29.61
2018-08-22T10:48:57.662Z,29.27
2018-08-22T10:51:26.314Z,29.54
2018-08-22T10:53:55.072Z,29.46
2018-08-22T10:56:23.812Z,29.43
2018-08-22T10:58:52.486Z,29.59
2018-08-22T11:01:21.202Z,29.70
2018-08-22T11:03:49.905Z,29.81
2018-08-22T11:06:18.683Z,29.93
2018-08-22T11:08:47.362Z,30.08
2018-08-22T11:11:16.077Z,30.02
2018-08-22T11:13:44.988Z,29.99
2018-08-22T11:16:13.641Z,30.02
2018-08-22T11:18:42.871Z,29.99
2018-08-22T11:21:22.739Z,29.83
2018-08-22T11:24:02.760Z,29.69
2018-08-22T11:26:42.398Z,29.72
2018-08-22T11:29:22.283Z,29.76
2018-08-22T11:32:01.994Z,29.80
2018-08-22T11:34:41.863Z,29.75
2018-08-22T11:37:11.838Z,30.21
2018-08-22T11:39:40.582Z,30.56
2018-08-22T11:42:09.309Z,30.82
2018-08-22T11:44:38.224Z,31.31
2018-08-22T11:47:06.984Z,31.57
2018-08-22T11:49:35.769Z,31.83
2018-08-22T11:52:04.487Z,31.90
2018-08-22T11:54:33.357Z,32.13
2018-08-22T11:57:02.981Z,32.45
2018-08-22T11:59:31.950Z,32.69
2018-08-22T12:02:00.671Z,32.81
2018-08-22T12:04:29.330Z,32.70
2018-08-22T12:06:58.060Z,32.40
2018-08-22T12:09:26.840Z,32.61
2018-08-22T12:11:55.714Z,32.77
2018-08-22T12:14:24.476Z,33.38
2018-08-22T12:16:53.613Z,33.61
2018-08-22T12:19:22.245Z,33.59
2018-08-22T12:21:50.969Z,33.57
2018-08-22T12:24:19.668Z,33.09
2018-08-22T12:26:48.679Z,33.79
2018-08-22T12:29:17.528Z,34.49
2018-08-22T12:31:46.321Z,34.40
2018-08-22T12:34:15.338Z,34.86
2018-08-22T12:36:44.093Z,33.84
2018-08-22T12:39:12.867Z,35.06
2018-08-22T12:41:41.806Z,36.75
2018-08-22T12:44:10.589Z,36.60
2018-08-22T12:46:39.246Z,36.66
2018-08-22T12:49:08.078Z,37.21
2018-08-22T12:51:39.236Z,37.02
2018-08-22T12:54:08.033Z,37.61
2018-08-22T12:56:36.802Z,37.97
2018-08-22T12:59:05.895Z,37.67
2018-08-22T13:01:35.045Z,37.85
2018-08-22T13:04:03.743Z,38.05
2018-08-22T13:06:32.470Z,38.30
2018-08-22T13:09:01.674Z,39.33
2018-08-22T13:11:30.438Z,40.78
2018-08-22T13:13:59.130Z,41.53
2018-08-22T13:16:27.902Z,42.11
2018-08-22T13:18:56.822Z,42.39
2018-08-22T13:21:26.113Z,42.86
2018-08-22T13:23:54.819Z,42.97
2018-08-22T13:26:23.830Z,41.33
2018-08-22T13:28:52.557Z,39.86
2018-08-22T13:31:21.300Z,37.87
2018-08-22T13:33:50.155Z,36.37
2018-08-22T13:36:21.793Z,36.07
2018-08-22T13:38:50.698Z,36.91
2018-08-22T13:41:19.388Z,36.79
2018-08-22T13:43:48.185Z,36.38
2018-08-22T13:46:17.009Z,38.27
2018-08-22T13:48:46.715Z,40.15
2018-08-22T13:51:16.262Z,40.93
2018-08-22T13:53:45.147Z,39.21
2018-08-22T13:56:13.891Z,38.82
2018-08-22T13:58:43.005Z,40.01
2018-08-22T14:01:11.870Z,40.27
2018-08-22T14:03:40.601Z,39.75
2018-08-22T14:09:08.565Z,38.22
2018-08-22T14:11:37.374Z,37.10
2018-08-22T14:14:06.324Z,36.77
2018-08-22T14:16:35.265Z,35.58
2018-08-22T14:19:03.946Z,36.17
2018-08-22T14:21:32.655Z,36.13
2018-08-22T14:24:01.591Z,35.19
2018-08-22T14:26:30.554Z,34.40
2018-08-22T14:28:59.286Z,34.12
2018-08-22T14:31:28.030Z,34.05
2018-08-22T14:33:56.699Z,34.17
2018-08-22T14:36:25.576Z,34.17
2018-08-22T14:38:54.331Z,33.95
2018-08-22T14:41:23.490Z,33.70
2018-08-22T14:43:52.192Z,33.60
2018-08-22T14:46:20.878Z,33.39
2018-08-22T14:48:49.844Z,33.24
2018-08-22T14:51:19.459Z,33.22
2018-08-22T14:53:48.293Z,33.43
2018-08-22T14:56:17.546Z,33.83
2018-08-22T14:58:46.609Z,33.71
2018-08-22T15:01:15.879Z,33.52
2018-08-22T15:03:46.918Z,33.37
2018-08-22T15:06:16.061Z,33.16
2018-08-22T15:08:44.985Z,33.04
2018-08-22T15:11:13.674Z,32.78
2018-08-22T15:13:42.354Z,32.42
2018-08-22T15:16:11.113Z,32.43
2018-08-22T15:18:40.367Z,32.28
2018-08-22T15:21:14.188Z,32.35
2018-08-22T15:23:42.927Z,32.32
2018-08-22T15:26:12.277Z,32.29
2018-08-22T15:28:41.408Z,32.35
2018-08-22T15:31:10.177Z,31.94
2018-08-22T15:33:39.556Z,31.93
2018-08-22T15:36:08.367Z,31.97
2018-08-22T15:38:37.079Z,31.93
2018-08-22T15:41:06.370Z,31.95
2018-08-22T15:43:35.517Z,31.95
2018-08-22T15:46:04.264Z,31.96
2018-08-22T15:48:33.082Z,31.85
2018-08-22T15:51:02.222Z,31.96
2018-08-22T15:53:31.402Z,31.97
2018-08-22T15:56:00.121Z,31.90
2018-08-22T15:58:28.986Z,31.81
2018-08-22T16:03:41.849Z,31.78
2018-08-22T16:06:10.587Z,31.77
2018-08-22T16:08:39.416Z,31.74
2018-08-22T16:11:08.109Z,31.79
2018-08-22T16:13:38.067Z,31.87
2018-08-22T16:16:06.864Z,31.90
2018-08-22T16:18:35.508Z,31.87
2018-08-22T16:21:06.467Z,31.80
2018-08-22T16:23:36.018Z,31.78
2018-08-22T16:26:05.844Z,31.68
2018-08-22T16:28:46.993Z,31.56
2018-08-22T16:31:16.068Z,31.48
2018-08-22T16:33:44.711Z,31.36
2018-08-22T16:36:19.613Z,31.36
2018-08-22T16:38:48.502Z,31.25
2018-08-22T16:41:18.439Z,31.20
2018-08-22T16:43:49.757Z,31.21
2018-08-22T16:46:18.625Z,31.17
2018-08-22T16:48:50.646Z,31.26
2018-08-22T16:51:20.242Z,31.27
2018-08-22T16:54:02.962Z,31.22
2018-08-22T16:56:34.113Z,31.12
2018-08-22T16:59:09.995Z,31.22
2018-08-22T17:01:47.110Z,31.32
2018-08-22T17:04:15.989Z,31.32
2018-08-22T17:06:44.846Z,31.35
2018-08-22T17:09:13.530Z,31.35
2018-08-22T17:11:42.520Z,31.27
2018-08-22T17:14:11.170Z,31.14
2018-08-22T17:16:39.963Z,31.03
2018-08-22T17:19:08.607Z,30.93
2018-08-22T17:21:37.390Z,30.83
2018-08-22T17:24:06.295Z,30.74
2018-08-22T17:26:35.792Z,30.67
2018-08-22T17:29:04.545Z,30.57
2018-08-22T17:31:33.321Z,30.51
2018-08-22T17:34:03.248Z,30.36
2018-08-22T17:36:31.964Z,30.26
2018-08-22T17:39:01.818Z,30.16
2018-08-22T17:41:31.467Z,30.06
2018-08-22T17:44:03.285Z,29.95
2018-08-22T17:46:35.364Z,29.85
2018-08-22T17:49:04.970Z,29.79
2018-08-22T17:51:45.069Z,29.69
2018-08-22T17:54:13.829Z,29.61
2018-08-22T17:56:43.001Z,29.50
2018-08-22T17:59:11.845Z,29.45
2018-08-22T18:01:40.954Z,29.40
2018-08-22T18:04:09.730Z,29.35
2018-08-22T18:06:38.449Z,29.31
2018-08-22T18:09:07.518Z,29.23
2018-08-22T18:11:36.262Z,29.17
2018-08-22T18:14:05.077Z,29.08
2018-08-22T18:16:33.977Z,28.99
2018-08-22T18:19:02.829Z,28.91
2018-08-22T18:21:38.611Z,28.84
2018-08-22T18:24:08.502Z,28.76
2018-08-22T18:26:37.175Z,28.68
2018-08-22T18:29:06.021Z,28.59
2018-08-22T18:31:34.873Z,28.53
2018-08-22T18:34:04.071Z,28.45
2018-08-22T18:36:33.520Z,28.42
2018-08-22T18:39:06.973Z,28.39
2018-08-22T18:41:35.801Z,28.34
2018-08-22T18:44:04.769Z,28.30
2018-08-22T18:46:33.662Z,28.25
2018-08-22T18:49:02.783Z,28.23
2018-08-22T18:51:31.743Z,28.18
2018-08-22T18:54:01.564Z,28.13
2018-08-22T18:56:30.503Z,28.09
2018-08-22T18:59:03.721Z,28.04
2018-08-22T19:01:32.685Z,28.01
2018-08-22T19:04:01.323Z,27.97
2018-08-22T19:06:30.147Z,27.92
2018-08-22T19:08:58.838Z,27.89
2018-08-22T19:11:27.717Z,27.81
2018-08-22T19:13:56.502Z,27.70
2018-08-22T19:16:25.200Z,27.64
2018-08-22T19:18:53.890Z,27.54
2018-08-22T19:21:22.934Z,27.47
2018-08-22T19:23:57.144Z,27.33
2018-08-22T19:26:26.698Z,27.18
2018-08-22T19:28:58.626Z,27.10
2018-08-22T19:31:27.419Z,27.04
2018-08-22T19:33:56.186Z,26.95
2018-08-22T19:36:25.236Z,26.92
2018-08-22T19:38:54.112Z,26.91
2018-08-22T19:41:29.371Z,26.93
2018-08-22T19:43:58.032Z,26.87
2018-08-22T19:46:26.808Z,26.89
2018-08-22T19:48:55.684Z,26.86
2018-08-22T19:51:24.386Z,26.86
2018-08-22T19:53:59.729Z,26.82
2018-08-22T19:56:29.030Z,26.80
2018-08-22T19:58:57.938Z,26.80
2018-08-22T20:01:32.583Z,26.78
2018-08-22T20:04:01.494Z,26.76
2018-08-22T20:06:30.579Z,26.74
2018-08-22T20:09:00.571Z,26.73
2018-08-22T20:11:31.977Z,26.70
2018-08-22T20:14:06.643Z,26.61
2018-08-22T20:16:35.548Z,26.53
2018-08-22T20:19:05.348Z,26.48
2018-08-22T20:21:35.305Z,26.52
2018-08-22T20:24:05.481Z,26.56
2018-08-22T20:26:34.806Z,26.53
2018-08-22T20:29:04.946Z,26.49
2018-08-22T20:31:35.642Z,26.36
2018-08-22T20:34:15.786Z,26.30
2018-08-22T20:36:46.154Z,26.30
2018-08-22T20:39:15.340Z,26.28
2018-08-22T20:41:44.739Z,26.23
2018-08-22T20:44:16.293Z,26.16
2018-08-22T20:46:46.435Z,26.13
2018-08-22T20:49:16.561Z,26.00
2018-08-22T20:51:45.291Z,25.98
2018-08-22T20:54:15.330Z,25.89
2018-08-22T20:56:49.376Z,25.86
2018-08-22T20:59:19.468Z,25.82
2018-08-22T21:01:53.177Z,25.77
2018-08-22T21:04:22.446Z,25.73
2018-08-22T21:06:51.145Z,25.71
2018-08-22T21:09:20.451Z,25.64
2018-08-22T21:11:49.897Z,25.59
2018-08-22T21:14:19.027Z,25.54
2018-08-22T21:16:47.726Z,25.47
2018-08-22T21:19:16.561Z,25.41
2018-08-22T21:21:45.407Z,25.29
2018-08-22T21:24:14.181Z,25.19
2018-08-22T21:26:44.781Z,25.09
2018-08-22T21:29:13.659Z,25.01
2018-08-22T21:31:42.315Z,24.98
2018-08-22T21:34:16.124Z,24.92
2018-08-22T21:36:46.161Z,24.86
2018-08-22T21:39:20.047Z,24.83
2018-08-22T21:41:49.360Z,24.79
2018-08-22T21:44:20.418Z,24.77
2018-08-22T21:46:56.213Z,24.74
2018-08-22T21:49:25.440Z,24.75
2018-08-22T21:51:57.023Z,24.76
2018-08-22T21:54:25.886Z,24.88
2018-08-22T21:56:54.573Z,24.85
2018-08-22T21:59:23.284Z,24.87
2018-08-22T22:01:57.349Z,24.89
2018-08-22T22:04:30.126Z,24.77
2018-08-22T22:06:58.838Z,24.76
2018-08-22T22:09:27.518Z,24.71
2018-08-22T22:11:59.166Z,24.68
2018-08-22T22:14:31.276Z,24.63
2018-08-22T22:17:01.072Z,24.54
2018-08-22T22:19:32.859Z,24.54
2018-08-22T22:22:02.337Z,24.53
2018-08-22T22:24:31.066Z,24.48
2018-08-22T22:27:00.342Z,24.43
2018-08-22T22:29:31.532Z,24.35
2018-08-22T22:32:00.298Z,24.28
2018-08-22T22:34:29.022Z,24.19
2018-08-22T22:36:57.650Z,24.18
2018-08-22T22:39:38.056Z,24.11
2018-08-22T22:42:16.685Z,24.06
2018-08-22T22:44:47.061Z,24.01
2018-08-22T22:47:20.855Z,24.01
2018-08-22T22:49:50.467Z,23.97
2018-08-22T22:52:35.771Z,23.90
2018-08-22T22:55:05.843Z,23.89
2018-08-22T22:57:36.103Z,23.84
2018-08-22T23:00:05.939Z,23.80
2018-08-22T23:02:34.805Z,23.75
2018-08-22T23:05:03.603Z,23.72
2018-08-22T23:07:34.712Z,23.69
2018-08-22T23:10:07.838Z,23.55
2018-08-22T23:12:50.663Z,23.54
2018-08-22T23:15:23.222Z,23.54
2018-08-22T23:17:53.836Z,23.51
2018-08-22T23:20:36.023Z,23.52
2018-08-22T23:23:09.100Z,23.50
2018-08-22T23:25:38.447Z,23.48
2018-08-22T23:28:07.197Z,23.45
2018-08-22T23:30:37.233Z,23.46
2018-08-22T23:33:06.851Z,23.44
2018-08-22T23:35:36.567Z,23.38
2018-08-22T23:38:07.993Z,23.35
2018-08-22T23:40:37.915Z,23.32
2018-08-22T23:43:06.572Z,23.27
2018-08-22T23:45:37.195Z,23.21
2018-08-22T23:48:06.677Z,23.20
2018-08-22T23:50:43.706Z,23.17
2018-08-22T23:53:12.344Z,23.12
2018-08-22T23:55:41.182Z,23.08
2018-08-22T23:58:09.858Z,23.03
